Hlavní strana
METAR-TAF:

METAR-TAF

Letiště :

Lechfeld, Německo

zeměpisná šířka: 48-11N, zeměpisná délka: 010-52E, výška: 555 m

Aktuální stav počasí

Zpráva byla vytvořena před 51 minutami, v 06:20 UTC
Západojihozápadní vítr 4 kt
Teplota 16°C
Vlhkost vzduchu 82%
Tlak 1021 hPa
Viditelnost 10 km a více
Skoro jasno ve výšce 4000 ft

METAR: ETSL 150620Z 24004KT 9999 FEW040 16/13 Q1021 BLU+

Čas: 09:11 (07:11 UTC)

Předpověď počasí

Zpráva byla vytvořena před 2 hodinami a 51 minutami, v 04:20 UTC
Předpověď platná od 15 v 05 UTC do 15 v 14 UTC
Jihozápadní vítr 7 kt
Viditelnost 10 km a více
Polojasno ve výšce 5000 ft

TAF: ETSL 150420Z 1505/1514 23007KT 9999 NSW SCT050 BY ETGL

Stav a předpovědi počasí z více než 4 000 letišť (zprávy METAR a TAF).

Červené a žluté tečky na mapě představují dostupné meteorologické stanice.

Když kurzor umístíte na tečku, zobrazí se název stanice.

Pak kliknutím zobrazíte stav a předpověď počasí.

Chcete-li změnit mapu, kliknutím na zelené tlačítko se znaménkem +mapu přiblížíte, kliknutím na zelené tlačítko se znaménkem – mapu oddálíte a kliknutím na zelené šipky přejdete na sousední mapy.


METAR-TAF: